sensor_id;sensor_type;location;lat;lon;timestamp;P1;durP1;ratioP1;P2;durP2;ratioP2
71629;SDS011;59479;51.902;8.212;2022-09-13T00:01:55;6.88;;;3.45;;
71629;SDS011;59479;51.902;8.212;2022-09-13T00:04:20;7.33;;;4.23;;
71629;SDS011;59479;51.902;8.212;2022-09-13T00:06:45;8.63;;;3.90;;
71629;SDS011;59479;51.902;8.212;2022-09-13T00:09:10;8.48;;;3.60;;
71629;SDS011;59479;51.902;8.212;2022-09-13T00:11:36;8.87;;;3.77;;
71629;SDS011;59479;51.902;8.212;2022-09-13T00:14:01;8.37;;;4.07;;
71629;SDS011;59479;51.902;8.212;2022-09-13T00:16:27;6.27;;;3.63;;
71629;SDS011;59479;51.902;8.212;2022-09-13T00:18:53;6.03;;;3.55;;
71629;SDS011;59479;51.902;8.212;2022-09-13T00:21:20;6.68;;;3.67;;
71629;SDS011;59479;51.902;8.212;2022-09-13T00:23:47;5.80;;;3.57;;
71629;SDS011;59479;51.902;8.212;2022-09-13T00:26:19;6.38;;;3.20;;
71629;SDS011;59479;51.902;8.212;2022-09-13T00:28:50;5.53;;;3.53;;
71629;SDS011;59479;51.902;8.212;2022-09-13T00:31:17;6.85;;;3.65;;
71629;SDS011;59479;51.902;8.212;2022-09-13T00:33:43;6.40;;;3.47;;
71629;SDS011;59479;51.902;8.212;2022-09-13T00:36:09;6.53;;;3.37;;
71629;SDS011;59479;51.902;8.212;2022-09-13T00:38:36;5.88;;;3.40;;
71629;SDS011;59479;51.902;8.212;2022-09-13T00:41:02;5.68;;;3.67;;
71629;SDS011;59479;51.902;8.212;2022-09-13T00:46:06;6.28;;;3.15;;
71629;SDS011;59479;51.902;8.212;2022-09-13T00:48:32;5.45;;;3.25;;
71629;SDS011;59479;51.902;8.212;2022-09-13T00:50:59;5.10;;;2.97;;
71629;SDS011;59479;51.902;8.212;2022-09-13T00:53:30;6.05;;;2.80;;
71629;SDS011;59479;51.902;8.212;2022-09-13T00:56:01;5.43;;;3.00;;
71629;SDS011;59479;51.902;8.212;2022-09-13T00:58:35;5.32;;;3.25;;
71629;SDS011;59479;51.902;8.212;2022-09-13T01:01:07;5.95;;;3.05;;
71629;SDS011;59479;51.902;8.212;2022-09-13T01:03:34;5.97;;;3.10;;
71629;SDS011;59479;51.902;8.212;2022-09-13T01:06:01;6.65;;;3.28;;
71629;SDS011;59479;51.902;8.212;2022-09-13T01:08:30;5.50;;;3.03;;
71629;SDS011;59479;51.902;8.212;2022-09-13T01:10:57;5.07;;;3.05;;
71629;SDS011;59479;51.902;8.212;2022-09-13T01:13:31;6.23;;;2.77;;
71629;SDS011;59479;51.902;8.212;2022-09-13T01:15:57;5.60;;;3.15;;
71629;SDS011;59479;51.902;8.212;2022-09-13T01:18:24;5.78;;;3.10;;
71629;SDS011;59479;51.902;8.212;2022-09-13T01:32:11;5.40;;;3.28;;
71629;SDS011;59479;51.902;8.212;2022-09-13T01:37:52;5.00;;;2.97;;
71629;SDS011;59479;51.902;8.212;2022-09-13T01:46:00;6.38;;;3.40;;
71629;SDS011;59479;51.902;8.212;2022-09-13T01:48:33;5.75;;;3.00;;
71629;SDS011;59479;51.902;8.212;2022-09-13T01:51:27;5.22;;;3.00;;
71629;SDS011;59479;51.902;8.212;2022-09-13T01:54:05;5.43;;;3.10;;
71629;SDS011;59479;51.902;8.212;2022-09-13T01:56:42;5.30;;;3.33;;
71629;SDS011;59479;51.902;8.212;2022-09-13T01:59:17;6.75;;;3.20;;
71629;SDS011;59479;51.902;8.212;2022-09-13T02:01:48;5.55;;;3.30;;
71629;SDS011;59479;51.902;8.212;2022-09-13T02:04:26;6.50;;;3.10;;
71629;SDS011;59479;51.902;8.212;2022-09-13T02:06:58;5.82;;;3.22;;
71629;SDS011;59479;51.902;8.212;2022-09-13T02:09:27;6.07;;;3.65;;
71629;SDS011;59479;51.902;8.212;2022-09-13T02:12:02;6.10;;;3.50;;
71629;SDS011;59479;51.902;8.212;2022-09-13T02:14:36;6.15;;;3.88;;
71629;SDS011;59479;51.902;8.212;2022-09-13T02:19:44;6.53;;;3.60;;
71629;SDS011;59479;51.902;8.212;2022-09-13T02:22:17;6.13;;;3.53;;
71629;SDS011;59479;51.902;8.212;2022-09-13T02:24:47;7.72;;;4.18;;
71629;SDS011;59479;51.902;8.212;2022-09-13T02:27:16;6.32;;;3.65;;
71629;SDS011;59479;51.902;8.212;2022-09-13T02:29:44;6.47;;;4.22;;
71629;SDS011;59479;51.902;8.212;2022-09-13T02:34:44;7.65;;;4.13;;
71629;SDS011;59479;51.902;8.212;2022-09-13T02:37:12;6.65;;;4.25;;
71629;SDS011;59479;51.902;8.212;2022-09-13T02:39:40;7.47;;;4.37;;
71629;SDS011;59479;51.902;8.212;2022-09-13T02:42:17;7.88;;;4.70;;
71629;SDS011;59479;51.902;8.212;2022-09-13T02:44:47;8.27;;;4.25;;
71629;SDS011;59479;51.902;8.212;2022-09-13T02:47:32;7.63;;;4.30;;
71629;SDS011;59479;51.902;8.212;2022-09-13T02:58:18;6.47;;;3.97;;
71629;SDS011;59479;51.902;8.212;2022-09-13T03:00:49;7.05;;;3.90;;
71629;SDS011;59479;51.902;8.212;2022-09-13T03:03:15;7.87;;;4.23;;
71629;SDS011;59479;51.902;8.212;2022-09-13T03:05:40;9.38;;;4.28;;
71629;SDS011;59479;51.902;8.212;2022-09-13T03:08:07;8.13;;;4.95;;
71629;SDS011;59479;51.902;8.212;2022-09-13T03:10:39;7.30;;;4.70;;
71629;SDS011;59479;51.902;8.212;2022-09-13T03:13:33;10.40;;;4.72;;
71629;SDS011;59479;51.902;8.212;2022-09-13T03:25:34;7.82;;;4.32;;
71629;SDS011;59479;51.902;8.212;2022-09-13T03:28:34;7.97;;;4.20;;
71629;SDS011;59479;51.902;8.212;2022-09-13T03:31:14;10.13;;;4.88;;
71629;SDS011;59479;51.902;8.212;2022-09-13T03:33:43;7.13;;;4.10;;
71629;SDS011;59479;51.902;8.212;2022-09-13T03:36:48;8.82;;;5.05;;
71629;SDS011;59479;51.902;8.212;2022-09-13T03:39:18;7.57;;;4.78;;
71629;SDS011;59479;51.902;8.212;2022-09-13T03:41:56;7.70;;;4.60;;
71629;SDS011;59479;51.902;8.212;2022-09-13T03:44:29;9.27;;;4.82;;
71629;SDS011;59479;51.902;8.212;2022-09-13T03:46:57;8.10;;;4.80;;
71629;SDS011;59479;51.902;8.212;2022-09-13T03:49:25;8.13;;;4.80;;
71629;SDS011;59479;51.902;8.212;2022-09-13T03:51:51;7.97;;;5.10;;
71629;SDS011;59479;51.902;8.212;2022-09-13T03:54:23;9.15;;;4.25;;
71629;SDS011;59479;51.902;8.212;2022-09-13T03:59:52;9.43;;;5.03;;
71629;SDS011;59479;51.902;8.212;2022-09-13T04:02:20;8.57;;;4.90;;
71629;SDS011;59479;51.902;8.212;2022-09-13T04:04:47;9.35;;;5.05;;
71629;SDS011;59479;51.902;8.212;2022-09-13T04:07:22;8.00;;;5.18;;
71629;SDS011;59479;51.902;8.212;2022-09-13T04:09:48;7.47;;;5.00;;
71629;SDS011;59479;51.902;8.212;2022-09-13T04:12:15;8.40;;;4.80;;
71629;SDS011;59479;51.902;8.212;2022-09-13T04:14:41;8.30;;;4.82;;
71629;SDS011;59479;51.902;8.212;2022-09-13T04:17:10;8.82;;;5.30;;
71629;SDS011;59479;51.902;8.212;2022-09-13T04:19:36;8.77;;;4.82;;
71629;SDS011;59479;51.902;8.212;2022-09-13T04:22:01;8.05;;;4.38;;
71629;SDS011;59479;51.902;8.212;2022-09-13T04:24:28;8.03;;;4.60;;
71629;SDS011;59479;51.902;8.212;2022-09-13T04:26:54;8.20;;;4.65;;
71629;SDS011;59479;51.902;8.212;2022-09-13T04:29:21;7.13;;;4.28;;
71629;SDS011;59479;51.902;8.212;2022-09-13T04:31:51;7.70;;;4.80;;
71629;SDS011;59479;51.902;8.212;2022-09-13T04:34:17;7.22;;;4.25;;
71629;SDS011;59479;51.902;8.212;2022-09-13T04:36:43;8.43;;;4.37;;
71629;SDS011;59479;51.902;8.212;2022-09-13T04:39:09;7.47;;;4.40;;
71629;SDS011;59479;51.902;8.212;2022-09-13T04:41:35;7.95;;;4.57;;
71629;SDS011;59479;51.902;8.212;2022-09-13T04:44:00;8.27;;;4.30;;
71629;SDS011;59479;51.902;8.212;2022-09-13T04:46:26;7.70;;;4.53;;
71629;SDS011;59479;51.902;8.212;2022-09-13T04:48:52;6.80;;;4.23;;
71629;SDS011;59479;51.902;8.212;2022-09-13T04:51:18;7.75;;;4.38;;
71629;SDS011;59479;51.902;8.212;2022-09-13T04:53:44;7.50;;;4.10;;
71629;SDS011;59479;51.902;8.212;2022-09-13T04:56:10;8.15;;;4.78;;
71629;SDS011;59479;51.902;8.212;2022-09-13T04:58:38;8.00;;;4.57;;
71629;SDS011;59479;51.902;8.212;2022-09-13T05:01:04;8.05;;;4.30;;
71629;SDS011;59479;51.902;8.212;2022-09-13T05:03:31;9.40;;;4.97;;
71629;SDS011;59479;51.902;8.212;2022-09-13T05:06:05;7.28;;;4.40;;
71629;SDS011;59479;51.902;8.212;2022-09-13T05:08:34;8.43;;;5.03;;
71629;SDS011;59479;51.902;8.212;2022-09-13T05:11:00;9.00;;;4.57;;
71629;SDS011;59479;51.902;8.212;2022-09-13T05:13:26;8.73;;;5.30;;
71629;SDS011;59479;51.902;8.212;2022-09-13T05:15:59;8.77;;;5.40;;
71629;SDS011;59479;51.902;8.212;2022-09-13T05:18:29;7.68;;;5.10;;
71629;SDS011;59479;51.902;8.212;2022-09-13T05:20:57;9.52;;;5.30;;
71629;SDS011;59479;51.902;8.212;2022-09-13T05:23:24;11.73;;;6.82;;
71629;SDS011;59479;51.902;8.212;2022-09-13T05:25:53;9.23;;;5.75;;
71629;SDS011;59479;51.902;8.212;2022-09-13T05:28:20;10.40;;;5.80;;
71629;SDS011;59479;51.902;8.212;2022-09-13T05:30:59;9.93;;;5.70;;
71629;SDS011;59479;51.902;8.212;2022-09-13T05:33:27;10.65;;;5.90;;
71629;SDS011;59479;51.902;8.212;2022-09-13T05:35:54;9.65;;;5.80;;
71629;SDS011;59479;51.902;8.212;2022-09-13T05:38:19;9.00;;;5.77;;
71629;SDS011;59479;51.902;8.212;2022-09-13T05:40:45;10.13;;;5.70;;
71629;SDS011;59479;51.902;8.212;2022-09-13T05:43:11;11.65;;;6.57;;
71629;SDS011;59479;51.902;8.212;2022-09-13T05:45:36;9.70;;;5.67;;
71629;SDS011;59479;51.902;8.212;2022-09-13T05:48:02;11.53;;;6.47;;
71629;SDS011;59479;51.902;8.212;2022-09-13T05:50:27;11.23;;;5.65;;
71629;SDS011;59479;51.902;8.212;2022-09-13T05:52:53;11.27;;;5.65;;
71629;SDS011;59479;51.902;8.212;2022-09-13T05:55:19;10.90;;;5.97;;
71629;SDS011;59479;51.902;8.212;2022-09-13T05:57:46;9.38;;;5.30;;
71629;SDS011;59479;51.902;8.212;2022-09-13T06:00:12;13.48;;;6.03;;
71629;SDS011;59479;51.902;8.212;2022-09-13T06:02:37;11.18;;;6.13;;
71629;SDS011;59479;51.902;8.212;2022-09-13T06:05:03;9.63;;;5.90;;
71629;SDS011;59479;51.902;8.212;2022-09-13T06:07:28;8.70;;;5.50;;
71629;SDS011;59479;51.902;8.212;2022-09-13T06:09:54;10.30;;;5.73;;
71629;SDS011;59479;51.902;8.212;2022-09-13T06:12:19;9.37;;;5.27;;
71629;SDS011;59479;51.902;8.212;2022-09-13T06:14:44;8.52;;;5.18;;
71629;SDS011;59479;51.902;8.212;2022-09-13T06:17:10;8.77;;;5.13;;
71629;SDS011;59479;51.902;8.212;2022-09-13T06:19:35;10.57;;;5.50;;
71629;SDS011;59479;51.902;8.212;2022-09-13T06:22:00;8.80;;;5.63;;
71629;SDS011;59479;51.902;8.212;2022-09-13T06:24:26;10.23;;;5.60;;
71629;SDS011;59479;51.902;8.212;2022-09-13T06:26:51;9.13;;;5.57;;
71629;SDS011;59479;51.902;8.212;2022-09-13T06:29:17;10.05;;;4.90;;
71629;SDS011;59479;51.902;8.212;2022-09-13T06:31:42;9.27;;;5.57;;
71629;SDS011;59479;51.902;8.212;2022-09-13T06:34:09;10.43;;;5.47;;
71629;SDS011;59479;51.902;8.212;2022-09-13T06:36:37;10.65;;;5.70;;
71629;SDS011;59479;51.902;8.212;2022-09-13T06:39:02;10.30;;;6.30;;
71629;SDS011;59479;51.902;8.212;2022-09-13T06:41:30;9.50;;;5.77;;
71629;SDS011;59479;51.902;8.212;2022-09-13T06:43:56;10.05;;;5.88;;
71629;SDS011;59479;51.902;8.212;2022-09-13T06:46:24;12.48;;;6.00;;
71629;SDS011;59479;51.902;8.212;2022-09-13T06:48:50;10.10;;;6.13;;
71629;SDS011;59479;51.902;8.212;2022-09-13T06:51:17;11.00;;;6.13;;
71629;SDS011;59479;51.902;8.212;2022-09-13T06:53:45;12.15;;;6.82;;
71629;SDS011;59479;51.902;8.212;2022-09-13T06:56:13;10.13;;;6.45;;
71629;SDS011;59479;51.902;8.212;2022-09-13T06:58:40;9.65;;;6.53;;
71629;SDS011;59479;51.902;8.212;2022-09-13T07:03:44;11.18;;;6.30;;
71629;SDS011;59479;51.902;8.212;2022-09-13T07:06:14;9.73;;;6.20;;
71629;SDS011;59479;51.902;8.212;2022-09-13T07:08:42;9.75;;;6.05;;
71629;SDS011;59479;51.902;8.212;2022-09-13T07:11:08;11.00;;;5.63;;
71629;SDS011;59479;51.902;8.212;2022-09-13T07:13:35;10.55;;;5.75;;
71629;SDS011;59479;51.902;8.212;2022-09-13T07:16:01;8.15;;;5.10;;
71629;SDS011;59479;51.902;8.212;2022-09-13T07:18:28;10.00;;;5.15;;
71629;SDS011;59479;51.902;8.212;2022-09-13T07:21:03;8.73;;;4.63;;
71629;SDS011;59479;51.902;8.212;2022-09-13T07:23:35;11.68;;;4.78;;
71629;SDS011;59479;51.902;8.212;2022-09-13T07:26:02;7.90;;;4.55;;
71629;SDS011;59479;51.902;8.212;2022-09-13T07:28:37;7.53;;;4.10;;
71629;SDS011;59479;51.902;8.212;2022-09-13T07:31:05;6.93;;;4.07;;
71629;SDS011;59479;51.902;8.212;2022-09-13T07:33:32;10.13;;;4.30;;
71629;SDS011;59479;51.902;8.212;2022-09-13T07:35:57;7.47;;;3.70;;
71629;SDS011;59479;51.902;8.212;2022-09-13T07:38:25;7.63;;;4.20;;
71629;SDS011;59479;51.902;8.212;2022-09-13T07:40:54;7.73;;;4.10;;
71629;SDS011;59479;51.902;8.212;2022-09-13T07:43:23;8.15;;;4.32;;
71629;SDS011;59479;51.902;8.212;2022-09-13T07:45:56;7.00;;;3.92;;
71629;SDS011;59479;51.902;8.212;2022-09-13T07:48:22;9.30;;;4.22;;
71629;SDS011;59479;51.902;8.212;2022-09-13T07:53:50;8.48;;;4.82;;
71629;SDS011;59479;51.902;8.212;2022-09-13T07:56:19;10.88;;;4.72;;
71629;SDS011;59479;51.902;8.212;2022-09-13T07:58:47;8.93;;;4.82;;
71629;SDS011;59479;51.902;8.212;2022-09-13T08:01:20;8.52;;;4.78;;
71629;SDS011;59479;51.902;8.212;2022-09-13T08:03:53;9.27;;;5.00;;
71629;SDS011;59479;51.902;8.212;2022-09-13T08:06:21;9.48;;;5.15;;
71629;SDS011;59479;51.902;8.212;2022-09-13T08:08:47;9.43;;;5.53;;
71629;SDS011;59479;51.902;8.212;2022-09-13T08:11:16;9.70;;;5.55;;
71629;SDS011;59479;51.902;8.212;2022-09-13T08:13:44;9.27;;;5.13;;
71629;SDS011;59479;51.902;8.212;2022-09-13T08:16:12;9.02;;;5.15;;
71629;SDS011;59479;51.902;8.212;2022-09-13T08:18:42;8.65;;;5.10;;
71629;SDS011;59479;51.902;8.212;2022-09-13T08:21:09;13.00;;;5.22;;
71629;SDS011;59479;51.902;8.212;2022-09-13T08:23:34;9.10;;;5.07;;
71629;SDS011;59479;51.902;8.212;2022-09-13T08:26:00;8.33;;;4.83;;
71629;SDS011;59479;51.902;8.212;2022-09-13T08:28:27;9.77;;;5.68;;
71629;SDS011;59479;51.902;8.212;2022-09-13T08:30:52;8.83;;;5.40;;
71629;SDS011;59479;51.902;8.212;2022-09-13T08:33:17;11.13;;;5.83;;
71629;SDS011;59479;51.902;8.212;2022-09-13T08:35:50;9.73;;;5.70;;
71629;SDS011;59479;51.902;8.212;2022-09-13T08:38:16;12.25;;;5.53;;
71629;SDS011;59479;51.902;8.212;2022-09-13T08:40:43;10.02;;;5.68;;
71629;SDS011;59479;51.902;8.212;2022-09-13T08:43:16;11.55;;;6.32;;
71629;SDS011;59479;51.902;8.212;2022-09-13T08:45:48;12.73;;;5.93;;
71629;SDS011;59479;51.902;8.212;2022-09-13T08:48:17;11.27;;;5.55;;
71629;SDS011;59479;51.902;8.212;2022-09-13T08:50:47;10.45;;;5.95;;
71629;SDS011;59479;51.902;8.212;2022-09-13T08:53:19;10.40;;;5.35;;
71629;SDS011;59479;51.902;8.212;2022-09-13T08:55:50;11.52;;;5.78;;
71629;SDS011;59479;51.902;8.212;2022-09-13T09:01:02;11.60;;;5.87;;
71629;SDS011;59479;51.902;8.212;2022-09-13T09:03:45;11.43;;;5.75;;
71629;SDS011;59479;51.902;8.212;2022-09-13T09:06:17;10.63;;;5.85;;
71629;SDS011;59479;51.902;8.212;2022-09-13T09:11:35;11.68;;;6.32;;
71629;SDS011;59479;51.902;8.212;2022-09-13T09:14:13;11.07;;;6.53;;
71629;SDS011;59479;51.902;8.212;2022-09-13T09:16:46;9.68;;;5.88;;
71629;SDS011;59479;51.902;8.212;2022-09-13T09:21:46;11.55;;;6.47;;
71629;SDS011;59479;51.902;8.212;2022-09-13T09:24:16;12.30;;;6.50;;
71629;SDS011;59479;51.902;8.212;2022-09-13T09:26:45;11.13;;;6.55;;
71629;SDS011;59479;51.902;8.212;2022-09-13T09:29:17;9.80;;;5.80;;
71629;SDS011;59479;51.902;8.212;2022-09-13T09:37:21;12.40;;;6.70;;
71629;SDS011;59479;51.902;8.212;2022-09-13T09:39:51;14.98;;;6.82;;
71629;SDS011;59479;51.902;8.212;2022-09-13T09:42:18;14.63;;;7.03;;
71629;SDS011;59479;51.902;8.212;2022-09-13T09:44:51;12.50;;;7.10;;
71629;SDS011;59479;51.902;8.212;2022-09-13T09:47:22;12.80;;;6.80;;
71629;SDS011;59479;51.902;8.212;2022-09-13T09:49:53;14.77;;;6.90;;
71629;SDS011;59479;51.902;8.212;2022-09-13T09:55:10;11.30;;;6.93;;
71629;SDS011;59479;51.902;8.212;2022-09-13T09:57:57;13.77;;;7.00;;
71629;SDS011;59479;51.902;8.212;2022-09-13T10:00:29;14.63;;;7.33;;
71629;SDS011;59479;51.902;8.212;2022-09-13T10:02:58;10.30;;;5.70;;
71629;SDS011;59479;51.902;8.212;2022-09-13T10:05:26;13.45;;;6.40;;
71629;SDS011;59479;51.902;8.212;2022-09-13T10:07:54;13.68;;;6.50;;
71629;SDS011;59479;51.902;8.212;2022-09-13T10:10:23;10.07;;;5.72;;
71629;SDS011;59479;51.902;8.212;2022-09-13T10:12:51;10.17;;;6.10;;
71629;SDS011;59479;51.902;8.212;2022-09-13T10:15:19;10.77;;;5.70;;
71629;SDS011;59479;51.902;8.212;2022-09-13T10:20:41;11.00;;;5.60;;
71629;SDS011;59479;51.902;8.212;2022-09-13T10:23:23;11.18;;;5.40;;
71629;SDS011;59479;51.902;8.212;2022-09-13T10:26:01;8.47;;;4.60;;
71629;SDS011;59479;51.902;8.212;2022-09-13T10:29:16;9.90;;;5.43;;
71629;SDS011;59479;51.902;8.212;2022-09-13T10:31:25;11.70;;;5.43;;
71629;SDS011;59479;51.902;8.212;2022-09-13T10:33:57;11.35;;;5.43;;
71629;SDS011;59479;51.902;8.212;2022-09-13T10:36:26;9.88;;;4.85;;
71629;SDS011;59479;51.902;8.212;2022-09-13T10:39:03;8.48;;;4.30;;
71629;SDS011;59479;51.902;8.212;2022-09-13T10:41:35;8.35;;;4.47;;
71629;SDS011;59479;51.902;8.212;2022-09-13T10:44:03;7.68;;;4.38;;
71629;SDS011;59479;51.902;8.212;2022-09-13T10:46:32;8.43;;;4.90;;
71629;SDS011;59479;51.902;8.212;2022-09-13T10:49:00;11.68;;;4.55;;
71629;SDS011;59479;51.902;8.212;2022-09-13T10:56:41;9.15;;;4.22;;
71629;SDS011;59479;51.902;8.212;2022-09-13T10:59:14;8.70;;;4.18;;
71629;SDS011;59479;51.902;8.212;2022-09-13T11:04:58;8.60;;;4.38;;
71629;SDS011;59479;51.902;8.212;2022-09-13T11:13:13;7.50;;;3.70;;
71629;SDS011;59479;51.902;8.212;2022-09-13T11:40:09;6.40;;;3.70;;
71629;SDS011;59479;51.902;8.212;2022-09-13T11:45:48;6.75;;;3.97;;
71629;SDS011;59479;51.902;8.212;2022-09-13T11:48:41;7.53;;;4.28;;
71629;SDS011;59479;51.902;8.212;2022-09-13T11:51:30;8.53;;;3.70;;
71629;SDS011;59479;51.902;8.212;2022-09-13T11:54:27;13.13;;;4.07;;
71629;SDS011;59479;51.902;8.212;2022-09-13T11:56:56;8.55;;;4.13;;
71629;SDS011;59479;51.902;8.212;2022-09-13T12:02:13;8.80;;;4.18;;
71629;SDS011;59479;51.902;8.212;2022-09-13T12:05:20;7.50;;;3.70;;
71629;SDS011;59479;51.902;8.212;2022-09-13T12:07:54;6.50;;;3.47;;
71629;SDS011;59479;51.902;8.212;2022-09-13T12:10:28;9.43;;;4.50;;
71629;SDS011;59479;51.902;8.212;2022-09-13T12:13:08;9.50;;;4.70;;
71629;SDS011;59479;51.902;8.212;2022-09-13T12:15:40;7.28;;;4.20;;
71629;SDS011;59479;51.902;8.212;2022-09-13T12:21:22;8.10;;;4.57;;
71629;SDS011;59479;51.902;8.212;2022-09-13T12:24:01;9.38;;;3.92;;
71629;SDS011;59479;51.902;8.212;2022-09-13T12:26:38;8.35;;;4.15;;
71629;SDS011;59479;51.902;8.212;2022-09-13T12:29:22;7.88;;;4.32;;
71629;SDS011;59479;51.902;8.212;2022-09-13T12:32:05;9.27;;;4.43;;
71629;SDS011;59479;51.902;8.212;2022-09-13T12:34:39;10.45;;;4.55;;
71629;SDS011;59479;51.902;8.212;2022-09-13T12:37:14;9.27;;;4.50;;
71629;SDS011;59479;51.902;8.212;2022-09-13T12:39:51;7.63;;;4.50;;
71629;SDS011;59479;51.902;8.212;2022-09-13T12:48:01;7.85;;;4.35;;
71629;SDS011;59479;51.902;8.212;2022-09-13T13:05:04;10.27;;;5.53;;
71629;SDS011;59479;51.902;8.212;2022-09-13T13:07:39;7.53;;;4.70;;
71629;SDS011;59479;51.902;8.212;2022-09-13T13:10:20;9.63;;;5.45;;
71629;SDS011;59479;51.902;8.212;2022-09-13T13:12:48;8.73;;;4.87;;
71629;SDS011;59479;51.902;8.212;2022-09-13T13:17:49;8.97;;;4.87;;
71629;SDS011;59479;51.902;8.212;2022-09-13T13:23:37;11.00;;;5.40;;
71629;SDS011;59479;51.902;8.212;2022-09-13T13:29:32;9.07;;;5.50;;
71629;SDS011;59479;51.902;8.212;2022-09-13T13:31:37;9.52;;;5.03;;
71629;SDS011;59479;51.902;8.212;2022-09-13T13:36:44;8.17;;;4.70;;
71629;SDS011;59479;51.902;8.212;2022-09-13T13:57:04;8.90;;;5.13;;
71629;SDS011;59479;51.902;8.212;2022-09-13T13:59:46;7.85;;;4.70;;
71629;SDS011;59479;51.902;8.212;2022-09-13T14:02:13;12.55;;;4.90;;
71629;SDS011;59479;51.902;8.212;2022-09-13T14:05:04;9.15;;;4.65;;
71629;SDS011;59479;51.902;8.212;2022-09-13T14:10:07;8.00;;;4.53;;
71629;SDS011;59479;51.902;8.212;2022-09-13T14:15:52;6.55;;;4.38;;
71629;SDS011;59479;51.902;8.212;2022-09-13T14:18:48;11.65;;;3.75;;
71629;SDS011;59479;51.902;8.212;2022-09-13T14:23:48;8.70;;;3.85;;
71629;SDS011;59479;51.902;8.212;2022-09-13T14:26:13;7.70;;;3.63;;
71629;SDS011;59479;51.902;8.212;2022-09-13T14:28:39;5.68;;;3.40;;
71629;SDS011;59479;51.902;8.212;2022-09-13T14:31:05;7.18;;;3.50;;
71629;SDS011;59479;51.902;8.212;2022-09-13T14:33:32;5.63;;;3.17;;
71629;SDS011;59479;51.902;8.212;2022-09-13T14:38:29;6.88;;;3.20;;
71629;SDS011;59479;51.902;8.212;2022-09-13T14:41:10;5.80;;;2.97;;
71629;SDS011;59479;51.902;8.212;2022-09-13T14:43:38;6.47;;;3.13;;
71629;SDS011;59479;51.902;8.212;2022-09-13T14:48:48;6.05;;;2.70;;
71629;SDS011;59479;51.902;8.212;2022-09-13T14:53:44;6.47;;;3.30;;
71629;SDS011;59479;51.902;8.212;2022-09-13T14:56:47;5.97;;;2.85;;
71629;SDS011;59479;51.902;8.212;2022-09-13T14:59:12;5.63;;;2.85;;
71629;SDS011;59479;51.902;8.212;2022-09-13T15:01:41;7.13;;;3.00;;
71629;SDS011;59479;51.902;8.212;2022-09-13T15:04:07;5.45;;;2.70;;
71629;SDS011;59479;51.902;8.212;2022-09-13T15:06:35;8.57;;;2.40;;
71629;SDS011;59479;51.902;8.212;2022-09-13T15:11:34;5.70;;;2.50;;
71629;SDS011;59479;51.902;8.212;2022-09-13T15:16:59;6.80;;;2.40;;
71629;SDS011;59479;51.902;8.212;2022-09-13T15:19:34;5.95;;;2.38;;
71629;SDS011;59479;51.902;8.212;2022-09-13T15:22:08;3.63;;;1.88;;
71629;SDS011;59479;51.902;8.212;2022-09-13T15:24:38;4.75;;;1.92;;
71629;SDS011;59479;51.902;8.212;2022-09-13T15:27:19;6.17;;;2.10;;
71629;SDS011;59479;51.902;8.212;2022-09-13T15:29:58;5.10;;;2.50;;
71629;SDS011;59479;51.902;8.212;2022-09-13T15:34:59;3.50;;;1.88;;
71629;SDS011;59479;51.902;8.212;2022-09-13T15:37:44;5.25;;;2.28;;
71629;SDS011;59479;51.902;8.212;2022-09-13T15:42:48;3.83;;;1.88;;
71629;SDS011;59479;51.902;8.212;2022-09-13T15:45:15;4.55;;;2.15;;
71629;SDS011;59479;51.902;8.212;2022-09-13T15:47:46;4.72;;;2.15;;
71629;SDS011;59479;51.902;8.212;2022-09-13T15:50:20;4.55;;;2.20;;
71629;SDS011;59479;51.902;8.212;2022-09-13T15:52:48;5.23;;;2.17;;
71629;SDS011;59479;51.902;8.212;2022-09-13T15:55:14;5.38;;;1.88;;
71629;SDS011;59479;51.902;8.212;2022-09-13T15:57:39;4.18;;;2.00;;
71629;SDS011;59479;51.902;8.212;2022-09-13T16:00:13;3.85;;;1.70;;
71629;SDS011;59479;51.902;8.212;2022-09-13T16:02:44;3.97;;;1.88;;
71629;SDS011;59479;51.902;8.212;2022-09-13T16:05:09;4.40;;;2.00;;
71629;SDS011;59479;51.902;8.212;2022-09-13T16:07:36;4.97;;;2.00;;
71629;SDS011;59479;51.902;8.212;2022-09-13T16:10:02;4.87;;;1.90;;
71629;SDS011;59479;51.902;8.212;2022-09-13T16:12:28;4.57;;;1.80;;
71629;SDS011;59479;51.902;8.212;2022-09-13T16:14:53;6.50;;;1.83;;
71629;SDS011;59479;51.902;8.212;2022-09-13T16:17:27;5.77;;;2.23;;
71629;SDS011;59479;51.902;8.212;2022-09-13T16:19:53;3.83;;;1.90;;
71629;SDS011;59479;51.902;8.212;2022-09-13T16:22:19;4.55;;;1.90;;
71629;SDS011;59479;51.902;8.212;2022-09-13T16:24:45;4.78;;;1.77;;
71629;SDS011;59479;51.902;8.212;2022-09-13T16:27:11;9.80;;;2.20;;
71629;SDS011;59479;51.902;8.212;2022-09-13T16:29:38;5.95;;;2.13;;
71629;SDS011;59479;51.902;8.212;2022-09-13T16:32:03;6.72;;;2.08;;
71629;SDS011;59479;51.902;8.212;2022-09-13T16:34:29;4.00;;;2.00;;
71629;SDS011;59479;51.902;8.212;2022-09-13T16:36:55;4.20;;;2.10;;
71629;SDS011;59479;51.902;8.212;2022-09-13T16:39:20;3.77;;;1.70;;
71629;SDS011;59479;51.902;8.212;2022-09-13T16:41:45;3.73;;;1.50;;
71629;SDS011;59479;51.902;8.212;2022-09-13T16:44:11;5.40;;;1.63;;
71629;SDS011;59479;51.902;8.212;2022-09-13T16:46:38;5.15;;;1.65;;
71629;SDS011;59479;51.902;8.212;2022-09-13T16:49:03;3.37;;;1.67;;
71629;SDS011;59479;51.902;8.212;2022-09-13T16:51:28;4.77;;;1.80;;
71629;SDS011;59479;51.902;8.212;2022-09-13T16:53:54;5.63;;;1.73;;
71629;SDS011;59479;51.902;8.212;2022-09-13T16:56:20;5.15;;;1.75;;
71629;SDS011;59479;51.902;8.212;2022-09-13T16:58:47;3.97;;;1.70;;
71629;SDS011;59479;51.902;8.212;2022-09-13T17:01:13;3.17;;;1.40;;
71629;SDS011;59479;51.902;8.212;2022-09-13T17:03:41;4.85;;;1.98;;
71629;SDS011;59479;51.902;8.212;2022-09-13T17:06:07;6.40;;;1.77;;
71629;SDS011;59479;51.902;8.212;2022-09-13T17:08:35;4.10;;;1.50;;
71629;SDS011;59479;51.902;8.212;2022-09-13T17:11:05;4.35;;;1.63;;
71629;SDS011;59479;51.902;8.212;2022-09-13T17:13:33;3.55;;;1.75;;
71629;SDS011;59479;51.902;8.212;2022-09-13T17:15:59;3.28;;;1.70;;
71629;SDS011;59479;51.902;8.212;2022-09-13T17:18:24;3.50;;;1.60;;
71629;SDS011;59479;51.902;8.212;2022-09-13T17:20:49;3.87;;;1.53;;
71629;SDS011;59479;51.902;8.212;2022-09-13T17:23:15;3.88;;;1.58;;
71629;SDS011;59479;51.902;8.212;2022-09-13T17:25:50;5.03;;;1.60;;
71629;SDS011;59479;51.902;8.212;2022-09-13T17:28:16;5.00;;;1.55;;
71629;SDS011;59479;51.902;8.212;2022-09-13T17:30:42;5.40;;;1.67;;
71629;SDS011;59479;51.902;8.212;2022-09-13T17:33:10;4.65;;;1.60;;
71629;SDS011;59479;51.902;8.212;2022-09-13T17:35:35;4.23;;;1.80;;
71629;SDS011;59479;51.902;8.212;2022-09-13T17:38:01;4.67;;;1.73;;
71629;SDS011;59479;51.902;8.212;2022-09-13T17:40:27;3.75;;;1.63;;
71629;SDS011;59479;51.902;8.212;2022-09-13T17:42:54;3.72;;;1.40;;
71629;SDS011;59479;51.902;8.212;2022-09-13T17:45:20;6.18;;;1.88;;
71629;SDS011;59479;51.902;8.212;2022-09-13T17:47:46;3.10;;;1.50;;
71629;SDS011;59479;51.902;8.212;2022-09-13T17:50:12;3.17;;;1.50;;
71629;SDS011;59479;51.902;8.212;2022-09-13T17:52:37;3.80;;;1.70;;
71629;SDS011;59479;51.902;8.212;2022-09-13T17:55:03;3.75;;;1.38;;
71629;SDS011;59479;51.902;8.212;2022-09-13T17:57:29;5.53;;;1.70;;
71629;SDS011;59479;51.902;8.212;2022-09-13T17:59:54;4.18;;;1.65;;
71629;SDS011;59479;51.902;8.212;2022-09-13T18:02:20;3.60;;;1.67;;
71629;SDS011;59479;51.902;8.212;2022-09-13T18:04:46;3.60;;;1.65;;
71629;SDS011;59479;51.902;8.212;2022-09-13T18:07:17;3.30;;;1.60;;
71629;SDS011;59479;51.902;8.212;2022-09-13T18:09:43;5.30;;;1.67;;
71629;SDS011;59479;51.902;8.212;2022-09-13T18:12:08;5.03;;;1.70;;
71629;SDS011;59479;51.902;8.212;2022-09-13T18:14:35;3.75;;;1.73;;
71629;SDS011;59479;51.902;8.212;2022-09-13T18:17:01;3.78;;;1.40;;
71629;SDS011;59479;51.902;8.212;2022-09-13T18:19:26;4.85;;;1.90;;